Time;durP1;ratioP1;P1;durP2;ratioP2;P2;SDS_P1;SDS_P2;PMS_P1;PMS_P2;Temp;Humidity;BMP_temperature;BMP_pressure;BME280_temperature;BME280_humidity;BME280_pressure;Samples;Min_cycle;Max_cycle;Signal;HPM_P1;HPM_P2
2021/07/19 00:02:12;;;;;;;6.27;4.17;;;;;;;;;;4934369;29;20544;-79
2021/07/19 00:04:41;;;;;;;4.27;3.90;;;;;;;;;;4926001;29;20466;-82
2021/07/19 00:07:08;;;;;;;5.60;3.90;;;;;;;;;;4922826;29;20529;-81
2021/07/19 00:09:35;;;;;;;4.33;3.93;;;;;;;;;;4932542;29;20425;-79
2021/07/19 00:12:03;;;;;;;5.07;4.30;;;;;;;;;;4933485;29;20456;-79
2021/07/19 00:14:30;;;;;;;4.60;3.90;;;;;;;;;;4932552;29;20466;-77
2021/07/19 00:16:58;;;;;;;6.00;4.23;;;;;;;;;;4934345;29;20425;-80
2021/07/19 00:19:26;;;;;;;5.07;4.57;;;;;;;;;;4922166;29;20474;-81
2021/07/19 00:21:53;;;;;;;4.23;3.83;;;;;;;;;;4903525;29;20469;-80
2021/07/19 00:24:20;;;;;;;5.80;4.27;;;;;;;;;;4931014;29;20757;-78
2021/07/19 00:26:48;;;;;;;6.47;4.20;;;;;;;;;;4920721;29;20917;-80
2021/07/19 00:29:15;;;;;;;4.33;3.93;;;;;;;;;;4932270;29;20492;-80
2021/07/19 00:31:42;;;;;;;6.30;3.90;;;;;;;;;;4907066;29;20855;-80
2021/07/19 00:34:10;;;;;;;4.73;3.90;;;;;;;;;;4920820;29;21186;-79
2021/07/19 00:36:38;;;;;;;4.30;3.90;;;;;;;;;;4923135;29;20897;-79
2021/07/19 00:39:10;;;;;;;4.10;3.60;;;;;;;;;;4931665;29;20485;-78
2021/07/19 00:41:38;;;;;;;7.77;4.40;;;;;;;;;;4915320;29;20476;-78
2021/07/19 00:44:06;;;;;;;6.37;3.60;;;;;;;;;;4933906;29;20473;-79
2021/07/19 00:46:33;;;;;;;4.77;3.80;;;;;;;;;;4932237;29;20436;-81
2021/07/19 00:49:01;;;;;;;4.40;3.90;;;;;;;;;;4936939;28;20495;-79
2021/07/19 00:51:29;;;;;;;5.40;3.80;;;;;;;;;;4929715;29;20431;-80
2021/07/19 00:53:56;;;;;;;4.40;3.83;;;;;;;;;;4922822;29;20452;-80
2021/07/19 00:56:25;;;;;;;3.80;3.40;;;;;;;;;;4933911;29;20500;-79
2021/07/19 00:58:53;;;;;;;4.20;3.70;;;;;;;;;;4931969;29;20469;-78
2021/07/19 01:04:03;;;;;;;4.20;3.80;;;;;;;;;;4912160;29;20411;-78
2021/07/19 01:06:32;;;;;;;6.07;3.67;;;;;;;;;;4903406;29;20457;-80
2021/07/19 01:08:59;;;;;;;4.77;3.70;;;;;;;;;;4910927;29;20433;-79
2021/07/19 01:11:27;;;;;;;3.57;3.27;;;;;;;;;;4910311;29;20428;-79
2021/07/19 01:13:54;;;;;;;4.23;3.83;;;;;;;;;;4905965;29;20448;-77
2021/07/19 01:16:21;;;;;;;5.40;3.33;;;;;;;;;;4911818;29;20436;-78
2021/07/19 01:18:48;;;;;;;3.93;3.50;;;;;;;;;;4902092;29;20463;-79
2021/07/19 01:21:20;;;;;;;5.40;4.00;;;;;;;;;;4906666;29;20477;-77
2021/07/19 01:24:01;;;;;;;6.73;4.50;;;;;;;;;;4912221;29;20426;-80
2021/07/19 01:26:32;;;;;;;4.37;3.13;;;;;;;;;;4910616;29;20443;-77
2021/07/19 01:31:28;;;;;;;6.37;4.13;;;;;;;;;;4903800;29;20487;-79
2021/07/19 01:33:59;;;;;;;7.93;4.10;;;;;;;;;;4909673;29;20700;-78
2021/07/19 01:36:29;;;;;;;5.30;3.90;;;;;;;;;;4925426;29;20811;-77
2021/07/19 01:38:57;;;;;;;6.10;3.50;;;;;;;;;;4925166;29;20478;-80
2021/07/19 01:41:25;;;;;;;6.03;3.97;;;;;;;;;;4927399;29;20850;-77
2021/07/19 01:43:52;;;;;;;4.17;3.83;;;;;;;;;;4931167;29;20431;-78
2021/07/19 01:46:20;;;;;;;5.27;4.43;;;;;;;;;;4935314;29;20799;-78
2021/07/19 01:48:48;;;;;;;5.97;3.80;;;;;;;;;;4927041;29;20475;-77
2021/07/19 01:51:16;;;;;;;4.87;4.47;;;;;;;;;;4923400;29;20471;-78
2021/07/19 01:53:44;;;;;;;4.90;3.97;;;;;;;;;;4933774;29;20425;-79
2021/07/19 01:56:11;;;;;;;5.63;4.20;;;;;;;;;;4930122;29;20449;-78
2021/07/19 01:58:39;;;;;;;5.70;4.53;;;;;;;;;;4925251;29;20478;-78
2021/07/19 02:01:06;;;;;;;5.03;4.50;;;;;;;;;;4933074;29;20457;-78
2021/07/19 02:03:34;;;;;;;4.43;4.03;;;;;;;;;;4930716;29;20477;-78
2021/07/19 02:06:05;;;;;;;7.00;4.43;;;;;;;;;;4919623;29;20513;-80
2021/07/19 02:08:32;;;;;;;5.90;4.30;;;;;;;;;;4923701;29;20480;-80
2021/07/19 02:11:00;;;;;;;4.80;4.37;;;;;;;;;;4935073;29;20428;-79
2021/07/19 02:13:28;;;;;;;4.50;4.10;;;;;;;;;;4917123;29;20451;-79
2021/07/19 02:15:56;;;;;;;5.10;4.30;;;;;;;;;;4927889;29;20437;-79
2021/07/19 02:18:25;;;;;;;6.10;4.43;;;;;;;;;;4930602;29;20828;-77
2021/07/19 02:20:53;;;;;;;5.70;5.10;;;;;;;;;;4924345;29;20446;-78
2021/07/19 02:23:23;;;;;;;6.23;4.40;;;;;;;;;;4913991;29;20810;-78
2021/07/19 02:25:51;;;;;;;4.87;4.07;;;;;;;;;;4914059;29;20453;-77
2021/07/19 02:28:18;;;;;;;5.30;4.47;;;;;;;;;;4908081;29;20490;-77
2021/07/19 02:30:46;;;;;;;10.63;5.67;;;;;;;;;;4938097;29;20428;-79
2021/07/19 02:33:19;;;;;;;7.30;5.23;;;;;;;;;;4935711;29;20470;-78
2021/07/19 02:35:47;;;;;;;7.40;4.80;;;;;;;;;;4928782;29;20473;-77
2021/07/19 02:38:14;;;;;;;7.07;5.17;;;;;;;;;;4907290;29;20497;-76
2021/07/19 02:40:45;;;;;;;7.63;4.70;;;;;;;;;;4924468;29;22555;-76
2021/07/19 02:43:13;;;;;;;9.00;4.50;;;;;;;;;;4918722;29;20447;-76
2021/07/19 02:45:41;;;;;;;7.17;4.90;;;;;;;;;;4932808;29;20466;-76
2021/07/19 02:48:09;;;;;;;7.47;4.63;;;;;;;;;;4931156;29;20844;-76
2021/07/19 02:50:37;;;;;;;6.90;4.87;;;;;;;;;;4934425;29;20422;-77
2021/07/19 02:53:06;;;;;;;6.10;4.40;;;;;;;;;;4925097;29;20437;-77
2021/07/19 02:55:34;;;;;;;7.37;4.87;;;;;;;;;;4933127;29;20444;-75
2021/07/19 02:58:02;;;;;;;8.40;5.20;;;;;;;;;;4935988;29;20478;-76
2021/07/19 03:00:30;;;;;;;6.53;4.77;;;;;;;;;;4929633;28;20433;-77
2021/07/19 03:02:58;;;;;;;6.60;4.90;;;;;;;;;;4933903;29;20483;-77
2021/07/19 03:05:28;;;;;;;5.30;4.80;;;;;;;;;;4918226;29;20418;-76
2021/07/19 03:07:56;;;;;;;7.33;4.90;;;;;;;;;;4926377;29;20869;-77
2021/07/19 03:10:24;;;;;;;7.00;5.50;;;;;;;;;;4899973;29;20443;-76
2021/07/19 03:12:54;;;;;;;6.53;4.73;;;;;;;;;;4916413;29;20937;-78
2021/07/19 03:15:24;;;;;;;6.63;5.17;;;;;;;;;;4916771;29;20441;-77
2021/07/19 03:17:53;;;;;;;10.00;5.30;;;;;;;;;;4934073;29;20462;-76
2021/07/19 03:20:20;;;;;;;6.20;4.97;;;;;;;;;;4928384;29;20469;-77
2021/07/19 03:22:48;;;;;;;5.70;5.10;;;;;;;;;;4935009;29;21125;-76
2021/07/19 03:25:16;;;;;;;5.23;4.73;;;;;;;;;;4935598;29;20432;-76
2021/07/19 03:27:43;;;;;;;6.37;5.00;;;;;;;;;;4922786;29;20498;-77
2021/07/19 03:30:13;;;;;;;8.07;5.13;;;;;;;;;;4922657;29;20441;-77
2021/07/19 03:32:42;;;;;;;5.97;4.80;;;;;;;;;;4933443;29;20436;-76
2021/07/19 03:35:10;;;;;;;8.00;4.83;;;;;;;;;;4935061;29;20949;-76
2021/07/19 03:37:38;;;;;;;7.53;5.80;;;;;;;;;;4933041;29;20493;-75
2021/07/19 03:40:06;;;;;;;8.17;5.70;;;;;;;;;;4934119;29;20462;-75
2021/07/19 03:42:35;;;;;;;5.17;4.67;;;;;;;;;;4931592;28;20498;-77
2021/07/19 03:45:02;;;;;;;6.83;5.37;;;;;;;;;;4931716;29;20474;-76
2021/07/19 03:47:30;;;;;;;5.63;5.00;;;;;;;;;;4931641;29;20438;-76
2021/07/19 03:49:58;;;;;;;8.00;5.07;;;;;;;;;;4925452;29;20443;-77
2021/07/19 03:52:26;;;;;;;6.90;5.30;;;;;;;;;;4925599;29;20464;-77
2021/07/19 03:54:53;;;;;;;5.70;5.00;;;;;;;;;;4918454;29;20671;-77
2021/07/19 03:57:21;;;;;;;9.63;4.80;;;;;;;;;;4951519;28;20448;-76
2021/07/19 03:59:49;;;;;;;6.23;4.87;;;;;;;;;;4930660;29;20438;-77
2021/07/19 04:02:18;;;;;;;5.90;4.83;;;;;;;;;;4937635;29;20457;-76
2021/07/19 04:04:51;;;;;;;7.07;4.97;;;;;;;;;;4933172;29;20498;-77
2021/07/19 04:07:20;;;;;;;6.00;5.40;;;;;;;;;;4928776;29;20518;-77
2021/07/19 04:09:47;;;;;;;7.50;5.40;;;;;;;;;;4933686;29;20426;-75
2021/07/19 04:12:17;;;;;;;5.60;5.00;;;;;;;;;;4926937;29;20458;-78
2021/07/19 04:14:46;;;;;;;5.30;4.83;;;;;;;;;;4933389;29;20430;-76
2021/07/19 04:17:14;;;;;;;8.60;5.33;;;;;;;;;;4935037;29;20435;-78
2021/07/19 04:19:43;;;;;;;5.20;4.70;;;;;;;;;;4926408;28;20513;-76
2021/07/19 04:22:11;;;;;;;7.80;5.80;;;;;;;;;;4917640;29;20458;-76
2021/07/19 04:24:39;;;;;;;6.30;5.67;;;;;;;;;;4925308;29;20445;-76
2021/07/19 04:27:08;;;;;;;5.80;5.20;;;;;;;;;;4935754;29;20453;-77
2021/07/19 04:29:35;;;;;;;6.07;5.03;;;;;;;;;;4931182;29;20476;-77
2021/07/19 04:32:02;;;;;;;12.80;5.00;;;;;;;;;;4905877;29;20460;-75
2021/07/19 04:34:30;;;;;;;7.77;5.73;;;;;;;;;;4922881;29;20441;-77
2021/07/19 04:37:00;;;;;;;8.13;5.47;;;;;;;;;;4906097;29;20459;-77
2021/07/19 04:39:27;;;;;;;6.03;5.40;;;;;;;;;;4934119;29;20485;-76
2021/07/19 04:41:56;;;;;;;7.97;5.23;;;;;;;;;;4937377;28;20455;-77
2021/07/19 04:44:23;;;;;;;6.20;5.10;;;;;;;;;;4907084;29;21185;-76
2021/07/19 04:46:51;;;;;;;8.57;5.23;;;;;;;;;;4926969;29;20430;-76
2021/07/19 04:49:18;;;;;;;6.87;5.67;;;;;;;;;;4924494;29;20705;-77
2021/07/19 04:51:46;;;;;;;5.60;5.10;;;;;;;;;;4933397;29;20423;-76
2021/07/19 04:54:15;;;;;;;6.40;5.20;;;;;;;;;;4940190;28;20467;-77
2021/07/19 04:56:42;;;;;;;8.90;4.70;;;;;;;;;;4925660;29;20430;-75
2021/07/19 04:59:11;;;;;;;6.00;5.30;;;;;;;;;;4932554;29;20447;-77
2021/07/19 05:01:39;;;;;;;7.47;5.87;;;;;;;;;;4928721;29;21352;-76
2021/07/19 05:04:07;;;;;;;7.57;5.23;;;;;;;;;;4914529;29;20421;-77
2021/07/19 05:06:35;;;;;;;7.20;5.73;;;;;;;;;;4914356;29;20803;-77
2021/07/19 05:09:03;;;;;;;5.50;4.60;;;;;;;;;;4933373;29;20456;-76
2021/07/19 05:11:31;;;;;;;6.93;5.80;;;;;;;;;;4931498;29;20442;-77
2021/07/19 05:13:58;;;;;;;8.03;5.77;;;;;;;;;;4925631;29;20851;-77
2021/07/19 05:16:29;;;;;;;10.03;6.97;;;;;;;;;;4933410;29;20446;-77
2021/07/19 05:18:56;;;;;;;7.10;5.90;;;;;;;;;;4933184;29;20483;-76
2021/07/19 05:21:23;;;;;;;8.00;5.63;;;;;;;;;;4924933;29;20462;-76
2021/07/19 05:23:51;;;;;;;7.43;5.93;;;;;;;;;;4931634;29;20987;-77
2021/07/19 05:26:18;;;;;;;7.83;6.50;;;;;;;;;;4930272;29;20459;-76
2021/07/19 05:28:45;;;;;;;8.50;6.00;;;;;;;;;;4922485;29;20851;-76
2021/07/19 05:31:12;;;;;;;7.67;5.50;;;;;;;;;;4932972;29;20443;-76
2021/07/19 05:33:41;;;;;;;8.07;6.50;;;;;;;;;;4933218;29;20800;-76
2021/07/19 05:36:08;;;;;;;7.67;6.23;;;;;;;;;;4924814;29;20466;-76
2021/07/19 05:38:35;;;;;;;7.53;5.77;;;;;;;;;;4930131;29;20462;-76
2021/07/19 05:41:02;;;;;;;7.13;6.10;;;;;;;;;;4931999;29;20455;-76
2021/07/19 05:43:29;;;;;;;7.73;6.50;;;;;;;;;;4932816;29;20496;-78
2021/07/19 05:45:56;;;;;;;7.17;6.47;;;;;;;;;;4920958;29;20957;-77
2021/07/19 05:48:24;;;;;;;6.77;6.00;;;;;;;;;;4926559;29;20573;-77
2021/07/19 05:50:52;;;;;;;7.60;6.90;;;;;;;;;;4931417;29;20439;-77
2021/07/19 05:53:19;;;;;;;8.03;7.23;;;;;;;;;;4930418;29;20855;-81
2021/07/19 05:55:47;;;;;;;7.87;6.70;;;;;;;;;;4933356;29;20783;-77
2021/07/19 05:58:14;;;;;;;9.57;6.57;;;;;;;;;;4925687;29;20892;-77
2021/07/19 06:00:41;;;;;;;10.73;7.37;;;;;;;;;;4926641;29;20469;-77
2021/07/19 06:03:08;;;;;;;9.00;6.40;;;;;;;;;;4951698;28;20485;-78
2021/07/19 06:05:36;;;;;;;9.63;7.73;;;;;;;;;;4933119;29;20945;-77
2021/07/19 06:08:04;;;;;;;8.33;7.53;;;;;;;;;;4938561;29;20480;-77
2021/07/19 06:10:32;;;;;;;9.93;7.17;;;;;;;;;;4937741;29;20529;-77
2021/07/19 06:12:59;;;;;;;7.73;6.87;;;;;;;;;;4933770;29;20465;-77
2021/07/19 06:15:26;;;;;;;8.10;6.97;;;;;;;;;;4935532;29;20457;-76
2021/07/19 06:17:54;;;;;;;9.40;7.23;;;;;;;;;;4934798;29;20482;-75
2021/07/19 06:20:27;;;;;;;8.60;6.70;;;;;;;;;;4936133;29;20932;-75
2021/07/19 06:22:54;;;;;;;10.17;6.70;;;;;;;;;;4930529;29;22674;-74
2021/07/19 06:25:23;;;;;;;8.57;7.47;;;;;;;;;;4925389;29;20463;-76
2021/07/19 06:27:50;;;;;;;12.53;8.20;;;;;;;;;;4925923;29;20833;-75
2021/07/19 06:30:17;;;;;;;7.10;6.20;;;;;;;;;;4936011;29;20460;-76
2021/07/19 06:32:44;;;;;;;10.47;7.00;;;;;;;;;;4932064;29;20472;-77
2021/07/19 06:35:12;;;;;;;8.43;7.20;;;;;;;;;;4930904;29;20906;-76
2021/07/19 06:37:39;;;;;;;12.27;7.50;;;;;;;;;;4929998;29;20548;-77
2021/07/19 06:40:07;;;;;;;8.20;6.50;;;;;;;;;;4929724;29;20486;-78
2021/07/19 06:42:36;;;;;;;12.53;6.80;;;;;;;;;;4935804;29;20576;-75
2021/07/19 06:45:03;;;;;;;10.47;7.67;;;;;;;;;;4919915;29;20470;-76
2021/07/19 06:47:30;;;;;;;8.07;7.00;;;;;;;;;;4932849;29;20462;-78
2021/07/19 06:49:58;;;;;;;8.17;7.20;;;;;;;;;;4926771;29;20473;-78
2021/07/19 06:52:25;;;;;;;7.90;6.30;;;;;;;;;;4931638;29;20446;-77
2021/07/19 06:54:53;;;;;;;9.03;6.83;;;;;;;;;;4928055;29;20468;-80
2021/07/19 06:57:20;;;;;;;6.80;6.13;;;;;;;;;;4911207;29;20468;-76
2021/07/19 06:59:49;;;;;;;8.60;5.90;;;;;;;;;;4905014;29;20462;-76
2021/07/19 07:02:17;;;;;;;8.70;6.53;;;;;;;;;;4928078;29;20454;-77
2021/07/19 07:04:44;;;;;;;7.27;6.57;;;;;;;;;;4913097;29;20460;-76
2021/07/19 07:07:11;;;;;;;9.10;6.30;;;;;;;;;;4918761;29;20474;-77
2021/07/19 07:09:39;;;;;;;8.70;6.63;;;;;;;;;;4918535;29;20581;-76
2021/07/19 07:12:06;;;;;;;9.43;6.60;;;;;;;;;;4923123;29;20459;-76
2021/07/19 07:14:34;;;;;;;8.27;6.80;;;;;;;;;;4930246;29;20466;-77
2021/07/19 07:17:02;;;;;;;8.63;6.37;;;;;;;;;;4927069;29;20467;-76
2021/07/19 07:19:29;;;;;;;9.80;6.50;;;;;;;;;;4930483;29;20485;-76
2021/07/19 07:21:56;;;;;;;9.43;6.97;;;;;;;;;;4934041;29;20530;-76
2021/07/19 07:24:24;;;;;;;9.80;7.43;;;;;;;;;;4919763;29;20491;-77
2021/07/19 07:26:51;;;;;;;9.20;8.00;;;;;;;;;;4925649;29;21157;-77
2021/07/19 07:29:18;;;;;;;9.57;7.33;;;;;;;;;;4928494;29;20866;-76
2021/07/19 07:31:45;;;;;;;10.07;7.00;;;;;;;;;;4930385;29;20457;-77
2021/07/19 07:34:14;;;;;;;9.80;7.00;;;;;;;;;;4933980;29;20583;-77
2021/07/19 07:36:41;;;;;;;10.40;8.00;;;;;;;;;;4923193;29;20463;-76
2021/07/19 07:39:08;;;;;;;12.80;7.57;;;;;;;;;;4935447;29;20513;-76
2021/07/19 07:41:35;;;;;;;7.87;6.70;;;;;;;;;;4941620;28;20465;-80
2021/07/19 07:44:03;;;;;;;9.70;7.87;;;;;;;;;;4933025;29;20983;-77
2021/07/19 07:46:30;;;;;;;8.50;7.60;;;;;;;;;;4909140;29;20469;-79
2021/07/19 07:48:57;;;;;;;12.97;7.93;;;;;;;;;;4934622;29;20463;-76
2021/07/19 07:51:26;;;;;;;11.37;8.20;;;;;;;;;;4926369;29;20938;-76
2021/07/19 07:53:53;;;;;;;8.80;7.90;;;;;;;;;;4927016;29;20823;-77
2021/07/19 07:56:20;;;;;;;10.83;8.60;;;;;;;;;;4931801;29;20462;-77
2021/07/19 07:58:47;;;;;;;9.60;8.13;;;;;;;;;;4931707;29;20466;-78
2021/07/19 08:01:14;;;;;;;8.97;7.43;;;;;;;;;;4929771;29;20467;-77
2021/07/19 08:03:41;;;;;;;9.90;8.60;;;;;;;;;;4931526;29;20492;-79
2021/07/19 08:06:09;;;;;;;11.33;8.37;;;;;;;;;;4934570;29;20439;-77
2021/07/19 08:08:37;;;;;;;12.87;8.00;;;;;;;;;;4919574;29;20517;-78
2021/07/19 08:11:05;;;;;;;9.77;8.37;;;;;;;;;;4927294;29;20477;-77
2021/07/19 08:13:32;;;;;;;9.80;8.80;;;;;;;;;;4934816;29;20467;-77
2021/07/19 08:15:59;;;;;;;12.53;8.17;;;;;;;;;;4918681;29;20454;-76
2021/07/19 08:18:26;;;;;;;12.20;8.80;;;;;;;;;;4926792;29;20513;-76
2021/07/19 08:20:53;;;;;;;10.33;8.00;;;;;;;;;;4931234;29;20809;-76
2021/07/19 08:23:20;;;;;;;11.13;8.33;;;;;;;;;;4933652;29;20470;-76
2021/07/19 08:25:49;;;;;;;9.50;8.50;;;;;;;;;;4923505;29;20555;-76
2021/07/19 08:28:16;;;;;;;10.97;8.60;;;;;;;;;;4929756;29;20554;-76
2021/07/19 08:30:44;;;;;;;9.60;8.60;;;;;;;;;;4937699;28;20458;-76
2021/07/19 08:33:11;;;;;;;10.50;8.17;;;;;;;;;;4920374;29;20469;-76
2021/07/19 08:35:38;;;;;;;12.30;8.37;;;;;;;;;;4928762;29;20505;-76
2021/07/19 08:38:06;;;;;;;14.17;9.00;;;;;;;;;;4931303;29;20482;-76
2021/07/19 08:40:33;;;;;;;10.00;8.40;;;;;;;;;;4932042;29;20535;-76
2021/07/19 08:43:04;;;;;;;13.70;9.50;;;;;;;;;;4924785;29;20489;-76
2021/07/19 08:45:32;;;;;;;8.67;7.67;;;;;;;;;;4922564;29;20977;-76
2021/07/19 08:48:00;;;;;;;9.73;8.73;;;;;;;;;;4908268;29;20486;-75
2021/07/19 08:50:27;;;;;;;13.33;10.43;;;;;;;;;;4919415;29;20462;-76
2021/07/19 08:52:55;;;;;;;9.53;8.53;;;;;;;;;;4921930;29;20454;-76
2021/07/19 08:55:23;;;;;;;12.10;8.73;;;;;;;;;;4909188;29;20549;-75
2021/07/19 08:57:50;;;;;;;10.43;8.00;;;;;;;;;;4928013;29;21022;-76
2021/07/19 09:00:20;;;;;;;10.77;9.10;;;;;;;;;;4920244;29;20466;-76
2021/07/19 09:02:47;;;;;;;10.07;8.80;;;;;;;;;;4919540;29;20438;-76
2021/07/19 09:05:15;;;;;;;10.27;8.67;;;;;;;;;;4931689;29;20446;-76
2021/07/19 09:07:42;;;;;;;11.03;8.70;;;;;;;;;;4928195;29;20486;-76
2021/07/19 09:10:11;;;;;;;9.93;8.90;;;;;;;;;;4930837;29;20447;-75
2021/07/19 09:12:39;;;;;;;13.60;9.80;;;;;;;;;;4927182;29;20494;-76
2021/07/19 09:15:06;;;;;;;13.70;9.67;;;;;;;;;;4921653;29;20458;-75
2021/07/19 09:17:35;;;;;;;11.53;9.00;;;;;;;;;;4920278;29;20479;-76
2021/07/19 09:20:02;;;;;;;12.17;9.10;;;;;;;;;;4904029;29;20483;-76
2021/07/19 09:22:31;;;;;;;10.40;8.43;;;;;;;;;;4917736;29;20459;-76
2021/07/19 09:25:13;;;;;;;11.33;8.83;;;;;;;;;;4910871;28;20496;-76
2021/07/19 09:27:42;;;;;;;12.40;8.50;;;;;;;;;;4907803;29;20486;-76
2021/07/19 09:30:13;;;;;;;11.40;9.70;;;;;;;;;;4927845;29;20455;-76
2021/07/19 09:32:55;;;;;;;12.40;9.93;;;;;;;;;;4920067;29;20473;-77
2021/07/19 09:35:24;;;;;;;15.50;10.30;;;;;;;;;;4903713;29;20828;-75
2021/07/19 09:37:52;;;;;;;11.97;10.67;;;;;;;;;;4911583;29;20482;-76
2021/07/19 09:40:24;;;;;;;14.90;10.80;;;;;;;;;;4930477;29;20506;-75
2021/07/19 09:42:52;;;;;;;14.30;10.47;;;;;;;;;;4930403;29;20466;-77
2021/07/19 09:45:24;;;;;;;13.03;10.50;;;;;;;;;;4916662;29;20501;-76
2021/07/19 09:47:51;;;;;;;12.13;10.87;;;;;;;;;;4922745;29;20482;-76
2021/07/19 09:50:19;;;;;;;13.50;11.57;;;;;;;;;;4929562;29;20467;-76
2021/07/19 09:52:47;;;;;;;12.50;10.40;;;;;;;;;;4929478;29;20475;-76
2021/07/19 09:55:15;;;;;;;14.77;11.53;;;;;;;;;;4919180;29;20476;-76
2021/07/19 09:57:47;;;;;;;15.10;10.60;;;;;;;;;;4915584;29;20489;-76
2021/07/19 10:00:20;;;;;;;13.60;10.97;;;;;;;;;;4929053;29;20467;-76
2021/07/19 10:02:47;;;;;;;13.43;11.37;;;;;;;;;;4929756;29;20533;-75
2021/07/19 10:05:24;;;;;;;11.50;10.23;;;;;;;;;;4928618;29;20486;-76
2021/07/19 10:07:52;;;;;;;17.10;12.00;;;;;;;;;;4914297;29;20469;-77
2021/07/19 10:10:20;;;;;;;11.77;10.27;;;;;;;;;;4927205;29;20477;-76
2021/07/19 10:12:47;;;;;;;11.63;10.10;;;;;;;;;;4918830;29;20459;-77
2021/07/19 10:15:16;;;;;;;15.83;12.37;;;;;;;;;;4914111;29;20474;-76
2021/07/19 10:17:43;;;;;;;16.87;10.40;;;;;;;;;;4914847;29;21057;-76
2021/07/19 10:20:10;;;;;;;12.80;9.97;;;;;;;;;;4912675;29;20451;-74
2021/07/19 10:22:38;;;;;;;11.70;10.50;;;;;;;;;;4916938;29;21004;-75
2021/07/19 10:25:08;;;;;;;12.40;10.90;;;;;;;;;;4919883;29;20494;-76
2021/07/19 10:27:37;;;;;;;11.70;9.97;;;;;;;;;;4919070;29;20474;-76
2021/07/19 10:30:06;;;;;;;12.20;10.30;;;;;;;;;;4927093;29;20446;-75
2021/07/19 10:32:34;;;;;;;12.47;10.70;;;;;;;;;;4913287;29;20454;-75
2021/07/19 10:35:01;;;;;;;13.40;11.23;;;;;;;;;;4926729;29;20471;-77
2021/07/19 10:37:32;;;;;;;13.70;10.60;;;;;;;;;;4929299;29;20990;-78
2021/07/19 10:39:59;;;;;;;15.03;11.43;;;;;;;;;;4926559;29;20509;-78
2021/07/19 10:42:36;;;;;;;13.80;11.77;;;;;;;;;;4933937;29;20446;-76
2021/07/19 10:45:11;;;;;;;13.87;12.20;;;;;;;;;;4920554;29;20486;-82
2021/07/19 10:47:53;;;;;;;15.53;11.37;;;;;;;;;;4921318;29;20479;-77
2021/07/19 10:50:21;;;;;;;14.37;11.57;;;;;;;;;;4909683;29;20441;-77
2021/07/19 10:52:49;;;;;;;13.93;11.50;;;;;;;;;;4916593;29;20457;-77
2021/07/19 10:55:25;;;;;;;15.10;11.87;;;;;;;;;;4935079;29;20458;-76
2021/07/19 10:58:02;;;;;;;14.03;11.63;;;;;;;;;;4926019;29;20489;-76
2021/07/19 11:00:30;;;;;;;15.57;12.80;;;;;;;;;;4905658;29;20462;-76
2021/07/19 11:03:02;;;;;;;15.93;12.83;;;;;;;;;;4926478;29;20459;-76
2021/07/19 11:05:34;;;;;;;20.27;14.53;;;;;;;;;;4918642;29;21977;-76
2021/07/19 11:08:01;;;;;;;17.37;12.57;;;;;;;;;;4925390;29;20472;-76
2021/07/19 11:10:29;;;;;;;15.70;13.40;;;;;;;;;;4918672;29;20461;-76
2021/07/19 11:12:57;;;;;;;16.67;14.73;;;;;;;;;;4934806;29;20446;-76
2021/07/19 11:15:35;;;;;;;17.00;13.77;;;;;;;;;;4901799;29;20443;-76
2021/07/19 11:18:13;;;;;;;14.57;12.73;;;;;;;;;;4925765;28;20489;-76
2021/07/19 11:20:41;;;;;;;15.43;12.97;;;;;;;;;;4926100;29;20468;-75
2021/07/19 11:23:09;;;;;;;14.57;12.70;;;;;;;;;;4934476;29;20450;-76
2021/07/19 11:25:41;;;;;;;15.47;13.30;;;;;;;;;;4948241;29;20494;-76
2021/07/19 11:28:15;;;;;;;16.50;13.87;;;;;;;;;;4907657;29;20876;-75
2021/07/19 11:30:44;;;;;;;14.50;12.97;;;;;;;;;;4926595;29;20462;-76
2021/07/19 11:33:12;;;;;;;15.73;13.30;;;;;;;;;;4933194;29;20801;-75
2021/07/19 11:35:40;;;;;;;16.10;13.97;;;;;;;;;;4916424;29;20462;-75
2021/07/19 11:38:14;;;;;;;15.80;14.17;;;;;;;;;;4917740;29;20467;-75
2021/07/19 11:40:42;;;;;;;17.83;13.97;;;;;;;;;;4916548;29;20478;-77
2021/07/19 11:43:09;;;;;;;15.93;13.57;;;;;;;;;;4936508;28;20451;-75
2021/07/19 11:45:39;;;;;;;18.13;13.33;;;;;;;;;;4935791;29;20485;-74
2021/07/19 11:48:08;;;;;;;16.83;13.47;;;;;;;;;;4928067;29;20492;-75
2021/07/19 11:50:35;;;;;;;15.80;14.20;;;;;;;;;;4925530;29;20453;-75
2021/07/19 11:53:02;;;;;;;14.93;13.20;;;;;;;;;;4923775;29;20465;-75
2021/07/19 11:55:29;;;;;;;15.23;13.60;;;;;;;;;;4925869;29;20627;-75
2021/07/19 11:57:59;;;;;;;17.27;12.70;;;;;;;;;;4921582;29;21071;-75
2021/07/19 12:00:28;;;;;;;15.27;13.17;;;;;;;;;;4933182;29;20471;-76
2021/07/19 12:02:59;;;;;;;16.20;12.83;;;;;;;;;;4930059;29;21281;-75
2021/07/19 12:05:28;;;;;;;14.80;12.13;;;;;;;;;;4912473;29;20487;-75
2021/07/19 12:08:00;;;;;;;14.43;12.90;;;;;;;;;;4925227;29;20499;-75
2021/07/19 12:10:27;;;;;;;13.60;12.10;;;;;;;;;;4915873;29;21194;-75
2021/07/19 12:12:55;;;;;;;13.90;11.73;;;;;;;;;;4925003;29;20823;-75
2021/07/19 12:15:22;;;;;;;14.13;12.53;;;;;;;;;;4917712;29;20483;-75
2021/07/19 12:17:55;;;;;;;14.63;12.30;;;;;;;;;;4930321;29;20486;-75
2021/07/19 12:20:25;;;;;;;15.67;11.80;;;;;;;;;;4922993;29;20566;-74
2021/07/19 12:22:56;;;;;;;15.00;11.53;;;;;;;;;;4926346;29;20466;-75
2021/07/19 12:25:23;;;;;;;14.80;12.30;;;;;;;;;;4930581;29;20486;-75
2021/07/19 12:27:59;;;;;;;13.27;10.97;;;;;;;;;;4931640;29;20483;-75
2021/07/19 12:30:29;;;;;;;14.17;11.70;;;;;;;;;;4911081;29;20467;-74
2021/07/19 12:32:56;;;;;;;13.80;11.00;;;;;;;;;;4921555;29;20459;-75
2021/07/19 12:35:27;;;;;;;16.10;11.23;;;;;;;;;;4925739;29;21268;-75
2021/07/19 12:37:57;;;;;;;12.17;10.90;;;;;;;;;;4922635;29;20471;-74
2021/07/19 12:40:25;;;;;;;15.60;12.43;;;;;;;;;;4906317;29;20488;-75
2021/07/19 12:42:53;;;;;;;14.57;11.60;;;;;;;;;;4906475;29;20860;-75
2021/07/19 12:45:20;;;;;;;15.10;11.27;;;;;;;;;;4907295;29;20494;-74
2021/07/19 12:47:48;;;;;;;14.20;11.83;;;;;;;;;;4910325;29;20483;-75
2021/07/19 12:50:15;;;;;;;14.73;11.60;;;;;;;;;;4911609;29;20499;-75
2021/07/19 12:52:43;;;;;;;15.83;12.47;;;;;;;;;;4913692;29;20455;-75
2021/07/19 12:55:12;;;;;;;14.27;12.33;;;;;;;;;;4896965;29;20459;-75
2021/07/19 12:57:42;;;;;;;15.77;12.80;;;;;;;;;;4907992;29;20596;-74
2021/07/19 13:00:12;;;;;;;14.33;12.43;;;;;;;;;;4905734;29;20452;-75
2021/07/19 13:02:39;;;;;;;16.00;12.93;;;;;;;;;;4911415;29;20586;-75
2021/07/19 13:05:07;;;;;;;14.10;12.47;;;;;;;;;;4905337;29;20483;-75
2021/07/19 13:07:35;;;;;;;17.47;14.00;;;;;;;;;;4912591;29;20467;-75
2021/07/19 13:10:07;;;;;;;14.87;13.10;;;;;;;;;;4910411;29;20460;-75
2021/07/19 13:12:35;;;;;;;17.77;14.27;;;;;;;;;;4898048;29;20467;-74
2021/07/19 13:15:05;;;;;;;16.73;14.93;;;;;;;;;;4906654;29;20499;-75
2021/07/19 13:17:33;;;;;;;16.10;14.47;;;;;;;;;;4907094;29;21505;-74
2021/07/19 13:20:03;;;;;;;17.83;14.80;;;;;;;;;;4910162;29;20546;-78
2021/07/19 13:22:31;;;;;;;18.00;14.60;;;;;;;;;;4897660;29;20471;-77
2021/07/19 13:24:58;;;;;;;16.87;14.87;;;;;;;;;;4904727;29;20483;-77
2021/07/19 13:27:30;;;;;;;16.90;14.90;;;;;;;;;;4921242;29;20459;-77
2021/07/19 13:30:00;;;;;;;16.30;14.60;;;;;;;;;;4905814;29;20490;-76
2021/07/19 13:32:28;;;;;;;14.70;13.10;;;;;;;;;;4910873;29;20452;-76
2021/07/19 13:34:56;;;;;;;16.37;13.63;;;;;;;;;;4901709;29;20448;-76
2021/07/19 13:37:23;;;;;;;15.23;13.63;;;;;;;;;;4907896;29;20463;-76
2021/07/19 13:39:51;;;;;;;15.93;13.90;;;;;;;;;;4923067;29;20489;-77
2021/07/19 13:42:21;;;;;;;15.80;13.57;;;;;;;;;;4934091;28;20809;-76
2021/07/19 13:44:52;;;;;;;18.90;14.23;;;;;;;;;;4918305;29;20502;-76
2021/07/19 13:47:20;;;;;;;15.33;13.53;;;;;;;;;;4920408;29;20462;-76
2021/07/19 13:49:49;;;;;;;16.33;13.63;;;;;;;;;;4920358;29;20961;-77
2021/07/19 13:52:16;;;;;;;15.00;12.77;;;;;;;;;;4927796;29;20458;-76
2021/07/19 13:54:43;;;;;;;17.10;13.50;;;;;;;;;;4932645;29;20442;-76
2021/07/19 13:57:10;;;;;;;16.70;13.70;;;;;;;;;;4938034;28;20470;-76
2021/07/19 13:59:38;;;;;;;18.00;12.60;;;;;;;;;;4927885;29;20853;-76
2021/07/19 14:02:05;;;;;;;14.47;12.97;;;;;;;;;;4927025;29;20472;-76
2021/07/19 14:04:34;;;;;;;15.40;13.27;;;;;;;;;;4905869;29;20972;-76
2021/07/19 14:07:02;;;;;;;14.43;12.93;;;;;;;;;;4930692;29;20557;-76
2021/07/19 14:09:30;;;;;;;15.83;13.77;;;;;;;;;;4910849;29;20470;-76
2021/07/19 14:11:57;;;;;;;17.57;14.63;;;;;;;;;;4917659;29;20549;-76
2021/07/19 14:14:25;;;;;;;14.67;12.73;;;;;;;;;;4934417;29;20457;-77
2021/07/19 14:16:52;;;;;;;16.03;14.03;;;;;;;;;;4931075;29;20467;-76
2021/07/19 14:19:19;;;;;;;15.63;12.97;;;;;;;;;;4935111;29;20466;-76
2021/07/19 14:21:47;;;;;;;15.17;13.50;;;;;;;;;;4930295;29;20477;-76
2021/07/19 14:24:16;;;;;;;16.13;12.30;;;;;;;;;;4929027;29;20442;-77
2021/07/19 14:26:43;;;;;;;16.93;12.50;;;;;;;;;;4920669;29;20494;-76
2021/07/19 14:29:10;;;;;;;13.80;12.07;;;;;;;;;;4933736;29;20493;-77
2021/07/19 14:31:38;;;;;;;13.83;12.37;;;;;;;;;;4937161;29;20442;-78
2021/07/19 14:34:05;;;;;;;15.73;14.07;;;;;;;;;;4930778;29;21263;-76
2021/07/19 14:36:33;;;;;;;15.63;13.50;;;;;;;;;;4927173;29;20463;-77
2021/07/19 14:39:01;;;;;;;15.37;13.00;;;;;;;;;;4935449;29;20474;-76
2021/07/19 14:41:29;;;;;;;16.93;15.07;;;;;;;;;;4919604;29;20454;-75
2021/07/19 14:43:56;;;;;;;18.70;16.20;;;;;;;;;;4922440;29;20472;-74